createdAt,value
2023-08-07T00:02:29.219Z,100839.09
2023-08-07T00:04:56.352Z,100849.94
2023-08-07T00:07:31.702Z,100832.56
2023-08-07T00:09:58.211Z,100863.06
2023-08-07T00:12:24.911Z,100890.78
2023-08-07T00:14:59.345Z,100908.81
2023-08-07T00:17:29.064Z,100917.56
2023-08-07T00:19:56.328Z,100904.03
2023-08-07T00:22:28.509Z,100910.97
2023-08-07T00:24:54.970Z,100909.63
2023-08-07T00:27:24.014Z,100925.22
2023-08-07T00:29:50.574Z,100906.94
2023-08-07T00:32:17.243Z,100917.50
2023-08-07T00:34:43.710Z,100898.44
2023-08-07T00:37:10.223Z,100918.56
2023-08-07T00:39:36.622Z,100915.84
2023-08-07T00:42:03.216Z,100896.75
2023-08-07T00:44:32.918Z,100905.22
2023-08-07T00:47:04.252Z,100875.59
2023-08-07T00:49:30.980Z,100896.72
2023-08-07T00:52:00.473Z,100900.84
2023-08-07T00:54:27.354Z,100913.53
2023-08-07T00:56:54.243Z,100893.13
2023-08-07T00:59:21.133Z,100865.88
2023-08-07T01:01:47.709Z,100872.44
2023-08-07T01:04:15.622Z,100893.97
2023-08-07T01:06:42.270Z,100881.59
2023-08-07T01:09:09.098Z,100898.53
2023-08-07T01:12:01.092Z,100910.47
2023-08-07T01:14:50.405Z,100911.50
2023-08-07T01:17:20.493Z,100908.34
2023-08-07T01:19:48.510Z,100881.34
2023-08-07T01:22:17.625Z,100899.38
2023-08-07T01:24:46.235Z,100882.97
2023-08-07T01:27:19.034Z,100913.09
2023-08-07T01:30:07.429Z,100919.94
2023-08-07T01:33:04.533Z,100910.97
2023-08-07T01:35:37.020Z,100922.63
2023-08-07T01:38:04.769Z,100915.47
2023-08-07T01:40:34.479Z,100913.38
2023-08-07T01:43:01.557Z,100903.28
2023-08-07T01:45:29.842Z,100911.00
2023-08-07T01:47:57.160Z,100911.00
2023-08-07T01:50:26.969Z,100913.94
2023-08-07T01:52:53.951Z,100909.34
2023-08-07T01:55:22.080Z,100904.81
2023-08-07T01:57:48.710Z,100890.72
2023-08-07T02:00:18.010Z,100870.72
2023-08-07T02:02:45.752Z,100899.88
2023-08-07T02:05:12.310Z,100888.78
2023-08-07T02:07:38.846Z,100905.28
2023-08-07T02:10:05.806Z,100896.88
2023-08-07T02:12:32.456Z,100898.03
2023-08-07T02:14:59.736Z,100911.31
2023-08-07T02:17:28.987Z,100917.75
2023-08-07T02:19:58.417Z,100901.81
2023-08-07T02:22:28.322Z,100880.72
2023-08-07T02:24:54.777Z,100905.78
2023-08-07T02:27:21.296Z,100896.00
2023-08-07T02:29:47.752Z,100905.50
2023-08-07T02:32:14.131Z,100900.81
2023-08-07T02:34:40.812Z,100903.16
2023-08-07T02:37:07.336Z,100902.09
2023-08-07T02:39:33.870Z,100903.69
2023-08-07T02:42:00.567Z,100902.34
2023-08-07T02:44:26.942Z,100895.50
2023-08-07T02:46:53.474Z,100875.09
2023-08-07T02:49:20.387Z,100896.28
2023-08-07T02:51:47.007Z,100895.47
2023-08-07T02:54:13.638Z,100885.69
2023-08-07T02:56:40.281Z,100887.53
2023-08-07T02:59:06.976Z,100887.03
2023-08-07T03:01:36.463Z,100883.34
2023-08-07T03:04:02.996Z,100889.41
2023-08-07T03:06:29.553Z,100881.94
2023-08-07T03:08:56.747Z,100876.13
2023-08-07T03:11:23.331Z,100869.72
2023-08-07T03:13:49.880Z,100877.66
2023-08-07T03:16:16.795Z,100873.91
2023-08-07T03:18:43.455Z,100846.69
2023-08-07T03:21:09.935Z,100864.91
2023-08-07T03:23:39.485Z,100877.28
2023-08-07T03:26:18.301Z,100871.88
2023-08-07T03:28:48.575Z,100858.31
2023-08-07T03:31:16.030Z,100858.16
2023-08-07T03:33:42.706Z,100866.00
2023-08-07T03:36:09.355Z,100847.16
2023-08-07T03:38:38.697Z,100846.72
2023-08-07T03:41:05.288Z,100843.81
2023-08-07T03:43:31.829Z,100791.16
2023-08-07T03:46:01.478Z,100796.41
2023-08-07T03:48:29.428Z,100795.63
2023-08-07T03:51:06.211Z,100794.78
2023-08-07T03:53:32.834Z,100784.59
2023-08-07T03:55:59.322Z,100801.03
2023-08-07T03:58:28.550Z,100791.88
2023-08-07T04:00:58.236Z,100784.03
2023-08-07T04:03:27.307Z,100794.09
2023-08-07T04:05:55.305Z,100820.09
2023-08-07T04:08:23.912Z,100816.41
2023-08-07T04:11:03.998Z,100815.47
2023-08-07T04:13:31.092Z,100810.25
2023-08-07T04:15:58.622Z,100796.81
2023-08-07T04:18:28.371Z,100797.38
2023-08-07T04:20:58.399Z,100813.78
2023-08-07T04:23:28.209Z,100821.56
2023-08-07T04:25:58.111Z,100833.78
2023-08-07T04:28:26.886Z,100830.16
2023-08-07T04:30:53.685Z,100832.50
2023-08-07T04:33:27.456Z,100849.69
2023-08-07T04:36:14.374Z,100836.78
2023-08-07T04:38:46.844Z,100830.16
2023-08-07T04:41:13.482Z,100863.22
2023-08-07T04:43:39.944Z,100835.41
2023-08-07T04:46:06.348Z,100879.66
2023-08-07T04:48:35.474Z,100876.22
2023-08-07T04:51:02.980Z,100873.91
2023-08-07T04:53:29.512Z,100871.72
2023-08-07T04:55:59.220Z,100872.78
2023-08-07T04:58:31.916Z,100877.81
2023-08-07T05:00:59.565Z,100888.38
2023-08-07T05:03:31.525Z,100883.88
2023-08-07T05:06:04.039Z,100895.94
2023-08-07T05:08:30.641Z,100880.50
2023-08-07T05:10:57.106Z,100872.25
2023-08-07T05:13:29.108Z,100892.66
2023-08-07T05:15:55.638Z,100865.56
2023-08-07T05:18:29.602Z,100894.22
2023-08-07T05:21:01.512Z,100875.47
2023-08-07T05:23:42.444Z,100876.97
2023-08-07T05:26:11.965Z,100863.69
2023-08-07T05:28:54.461Z,100898.75
2023-08-07T05:31:32.153Z,100867.22
2023-08-07T05:34:09.583Z,100885.09
2023-08-07T05:36:43.233Z,100916.88
2023-08-07T05:39:12.154Z,100883.69
2023-08-07T05:41:38.696Z,100906.22
2023-08-07T05:44:08.321Z,100893.00
2023-08-07T05:46:34.907Z,100904.06
2023-08-07T05:49:01.921Z,100897.75
2023-08-07T05:51:28.653Z,100914.25
2023-08-07T05:53:58.218Z,100884.09
2023-08-07T05:56:27.682Z,100894.19
2023-08-07T05:58:56.330Z,100909.78
2023-08-07T06:01:28.392Z,100895.97
2023-08-07T06:04:11.470Z,100924.13
2023-08-07T06:06:38.262Z,100908.56
2023-08-07T06:09:05.061Z,100937.66
2023-08-07T06:11:32.440Z,100940.63
2023-08-07T06:14:01.702Z,100931.94
2023-08-07T06:16:28.683Z,100963.22
2023-08-07T06:18:58.410Z,100974.03
2023-08-07T06:21:28.528Z,100982.84
2023-08-07T06:23:58.230Z,100967.75
2023-08-07T06:27:05.017Z,100979.38
2023-08-07T06:29:33.169Z,100994.19
2023-08-07T06:34:56.586Z,100985.22
2023-08-07T06:38:36.624Z,100988.00
2023-08-07T06:40:43.347Z,100990.53
2023-08-07T06:43:12.072Z,101007.19
2023-08-07T06:46:03.303Z,101045.75
2023-08-07T06:48:37.814Z,101044.22
2023-08-07T06:51:08.454Z,101033.41
2023-08-07T06:53:34.893Z,101057.03
2023-08-07T06:56:11.797Z,101077.09
2023-08-07T06:59:32.207Z,101111.69
2023-08-07T07:02:05.170Z,101127.53
2023-08-07T07:04:41.644Z,101166.25
2023-08-07T07:07:13.981Z,101212.44
2023-08-07T07:09:56.938Z,101262.03
2023-08-07T07:12:26.204Z,101306.00
2023-08-07T07:15:03.684Z,101351.56
2023-08-07T07:17:32.193Z,101380.53
2023-08-07T07:20:05.242Z,101393.03
2023-08-07T07:26:17.273Z,101404.25
2023-08-07T07:29:08.510Z,101439.69
2023-08-07T07:32:40.876Z,101435.56
2023-08-07T07:35:13.599Z,101399.75
2023-08-07T07:40:30.267Z,101396.53
2023-08-07T07:43:37.301Z,101403.88
2023-08-07T07:47:00.351Z,101415.47
2023-08-07T07:49:09.536Z,101415.47
2023-08-07T07:51:41.783Z,101403.03
2023-08-07T07:54:14.964Z,101354.31
2023-08-07T07:56:49.115Z,101305.00
2023-08-07T07:59:15.645Z,101260.78
2023-08-07T08:02:21.268Z,101231.75
2023-08-07T08:04:48.026Z,101211.59
2023-08-07T08:07:17.494Z,101155.63
2023-08-07T08:10:02.564Z,101169.53
2023-08-07T08:12:45.775Z,101162.13
2023-08-07T08:15:20.205Z,101175.22
2023-08-07T08:18:10.123Z,101192.06
2023-08-07T08:20:40.224Z,101156.09
2023-08-07T08:23:21.969Z,101191.66
2023-08-07T08:26:27.122Z,101236.63
2023-08-07T08:29:20.058Z,101199.03
2023-08-07T08:31:54.642Z,101220.84
2023-08-07T08:35:19.202Z,101208.28
2023-08-07T08:37:44.477Z,101193.25
2023-08-07T08:40:25.298Z,101174.97
2023-08-07T08:42:52.140Z,101176.19
2023-08-07T08:46:16.258Z,101191.97
2023-08-07T08:48:47.955Z,101154.81
2023-08-07T08:51:22.431Z,101159.88
2023-08-07T08:53:49.211Z,101024.47
2023-08-07T08:56:20.269Z,100856.84
2023-08-07T08:58:47.447Z,100822.09
2023-08-07T09:01:14.284Z,101180.53
2023-08-07T09:03:41.236Z,101136.94
2023-08-07T09:06:08.374Z,101197.50
2023-08-07T09:09:00.497Z,101258.84
2023-08-07T09:11:28.993Z,101254.06
2023-08-07T09:13:59.767Z,101287.03
2023-08-07T09:16:31.151Z,101309.50
2023-08-07T09:19:05.868Z,101356.94
2023-08-07T09:21:47.078Z,101356.56
2023-08-07T09:24:38.773Z,101372.91
2023-08-07T09:34:15.626Z,101404.25
2023-08-07T09:36:42.576Z,101401.44
2023-08-07T09:39:12.586Z,101391.72
2023-08-07T09:41:57.842Z,101384.31
2023-08-07T09:48:39.763Z,101439.53
2023-08-07T09:57:48.612Z,101473.00
2023-08-07T10:00:36.524Z,101467.88
2023-08-07T10:10:17.995Z,101400.09
2023-08-07T10:12:47.043Z,101390.41
2023-08-07T10:15:14.548Z,101365.31
2023-08-07T10:18:15.266Z,101311.75
2023-08-07T10:20:45.660Z,101289.25
2023-08-07T10:23:18.477Z,101268.63
2023-08-07T10:26:12.556Z,101217.47
2023-08-07T10:28:57.309Z,101081.78
2023-08-07T10:31:36.376Z,100885.22
2023-08-07T10:56:01.943Z,100866.75
2023-08-07T11:03:17.028Z,101036.81
2023-08-07T11:09:57.115Z,101614.81
2023-08-07T11:22:22.396Z,101616.06
2023-08-07T11:25:00.782Z,101615.47
2023-08-07T11:27:46.460Z,101590.59
2023-08-07T11:36:56.646Z,101622.84
2023-08-07T11:57:46.870Z,101559.66
2023-08-07T12:14:46.832Z,101592.66
2023-08-07T12:48:11.919Z,101589.22
2023-08-07T12:55:03.162Z,101585.50
2023-08-07T13:33:05.808Z,101567.06
2023-08-07T13:35:34.629Z,101554.06
2023-08-07T13:38:04.388Z,101579.53
2023-08-07T13:40:36.648Z,101565.78
2023-08-07T13:43:28.562Z,101577.13
2023-08-07T13:45:59.770Z,101568.97
2023-08-07T13:48:31.817Z,101558.97
2023-08-07T13:51:03.287Z,101588.88
2023-08-07T13:53:35.018Z,101599.72
2023-08-07T13:56:07.516Z,101571.03
2023-08-07T13:58:34.299Z,101577.91
2023-08-07T14:01:23.807Z,101579.19
2023-08-07T14:03:53.538Z,101608.22
2023-08-07T14:06:51.546Z,101576.75
2023-08-07T14:09:19.511Z,101615.81
2023-08-07T14:14:37.404Z,101590.19
2023-08-07T14:17:07.511Z,101606.28
2023-08-07T14:19:45.449Z,101618.75
2023-08-07T14:22:44.069Z,101602.78
2023-08-07T14:25:13.592Z,101644.13
2023-08-07T14:27:43.737Z,101612.94
2023-08-07T14:30:14.053Z,101608.81
2023-08-07T14:33:13.609Z,101614.38
2023-08-07T14:35:49.743Z,101622.28
2023-08-07T14:38:27.987Z,101633.03
2023-08-07T14:41:34.363Z,101620.56
2023-08-07T14:44:11.084Z,101639.34
2023-08-07T14:46:43.461Z,101620.97
2023-08-07T14:49:13.033Z,101655.28
2023-08-07T14:51:44.560Z,101609.34
2023-08-07T14:54:16.409Z,101638.09
2023-08-07T14:56:46.748Z,101635.09
2023-08-07T14:59:18.087Z,101617.72
2023-08-07T15:01:44.834Z,101622.09
2023-08-07T15:04:12.954Z,101622.78
2023-08-07T15:06:54.428Z,101664.28
2023-08-07T15:09:54.256Z,101627.56
2023-08-07T15:12:20.845Z,101654.41
2023-08-07T15:14:51.928Z,101627.75
2023-08-07T15:17:24.250Z,101628.97
2023-08-07T15:19:52.449Z,101649.50
2023-08-07T15:22:21.422Z,101650.41
2023-08-07T15:24:53.976Z,101648.63
2023-08-07T15:27:27.488Z,101639.97
2023-08-07T15:30:05.540Z,101664.22
2023-08-07T15:32:38.310Z,101646.22
2023-08-07T15:35:11.060Z,101655.78
2023-08-07T15:37:42.665Z,101661.09
2023-08-07T15:40:09.654Z,101694.78
2023-08-07T15:42:36.208Z,101647.00
2023-08-07T15:45:13.729Z,101647.00
2023-08-07T15:47:43.513Z,101640.50
2023-08-07T15:50:16.201Z,101648.41
2023-08-07T15:52:43.434Z,101661.41
2023-08-07T15:55:17.574Z,101652.47
2023-08-07T15:57:44.046Z,101634.41
2023-08-07T16:00:12.881Z,101639.84
2023-08-07T16:02:44.352Z,101650.88
2023-08-07T16:05:11.528Z,101635.28
2023-08-07T16:07:40.417Z,101631.13
2023-08-07T16:10:07.722Z,101636.41
2023-08-07T16:12:34.240Z,101646.53
2023-08-07T16:15:00.935Z,101633.22
2023-08-07T16:17:27.601Z,101633.13
2023-08-07T16:19:54.189Z,101659.25
2023-08-07T16:22:20.652Z,101641.75
2023-08-07T16:24:47.388Z,101658.22
2023-08-07T16:27:14.199Z,101660.84
2023-08-07T16:29:40.829Z,101674.53
2023-08-07T16:32:07.496Z,101657.03
2023-08-07T16:34:37.314Z,101640.88
2023-08-07T16:37:04.293Z,101634.16
2023-08-07T16:39:31.037Z,101649.84
2023-08-07T16:41:57.643Z,101636.72
2023-08-07T16:44:24.170Z,101653.09
2023-08-07T16:46:50.674Z,101632.06
2023-08-07T16:49:17.345Z,101650.38
2023-08-07T16:51:47.262Z,101630.66
2023-08-07T16:54:13.799Z,101637.91
2023-08-07T16:56:40.483Z,101657.94
2023-08-07T16:59:07.124Z,101637.31
2023-08-07T17:01:33.790Z,101655.69
2023-08-07T17:04:00.486Z,101668.25
2023-08-07T17:06:29.518Z,101653.09
2023-08-07T17:08:56.120Z,101630.50
2023-08-07T17:11:22.647Z,101626.47
2023-08-07T17:13:49.207Z,101628.47
2023-08-07T17:16:15.726Z,101654.19
2023-08-07T17:18:56.046Z,101633.91
2023-08-07T17:21:28.196Z,101636.16
2023-08-07T17:23:54.767Z,101637.75
2023-08-07T17:26:21.524Z,101625.81
2023-08-07T17:28:48.120Z,101624.19
2023-08-07T17:31:14.893Z,101627.97
2023-08-07T17:33:44.385Z,101638.09
2023-08-07T17:36:10.950Z,101649.78
2023-08-07T17:38:37.770Z,101622.06
2023-08-07T17:41:07.282Z,101635.38
2023-08-07T17:43:33.934Z,101648.63
2023-08-07T17:46:00.641Z,101628.84
2023-08-07T17:48:27.388Z,101608.50
2023-08-07T17:50:53.917Z,101637.69
2023-08-07T17:53:21.767Z,101621.47
2023-08-07T17:55:48.316Z,101607.88
2023-08-07T17:58:14.982Z,101646.84
2023-08-07T18:00:44.120Z,101616.59
2023-08-07T18:03:11.599Z,101613.38
2023-08-07T18:05:38.873Z,101633.56
2023-08-07T18:11:08.991Z,101617.34
2023-08-07T18:13:46.922Z,101632.13
2023-08-07T18:17:06.733Z,101647.34
2023-08-07T18:19:57.551Z,101632.28
2023-08-07T18:22:37.372Z,101639.47
2023-08-07T18:25:15.612Z,101651.84
2023-08-07T18:27:55.593Z,101581.75
2023-08-07T18:30:31.727Z,101608.97
2023-08-07T18:33:26.219Z,101609.25
2023-08-07T18:36:09.738Z,101595.66
2023-08-07T18:38:43.482Z,101592.31
2023-08-07T18:41:13.185Z,101607.00
2023-08-07T18:43:46.552Z,101589.69
2023-08-07T18:49:17.107Z,101578.78
2023-08-07T18:51:48.931Z,101613.41
2023-08-07T18:54:27.936Z,101557.78
2023-08-07T18:57:03.175Z,101537.72
2023-08-07T18:59:30.989Z,101238.03
2023-08-07T19:01:57.586Z,101081.03
2023-08-07T19:04:26.773Z,101069.22
2023-08-07T19:06:58.684Z,100955.84
2023-08-07T19:09:33.002Z,100940.38
2023-08-07T19:12:01.475Z,100961.59
2023-08-07T19:14:28.061Z,100710.28
2023-08-07T19:16:54.694Z,100604.06
2023-08-07T19:19:21.572Z,100609.50
2023-08-07T19:21:48.156Z,100598.59
2023-08-07T19:24:14.665Z,100568.00
2023-08-07T19:26:41.397Z,100568.75
2023-08-07T19:29:08.029Z,100561.78
2023-08-07T19:31:34.629Z,100506.28
2023-08-07T19:34:01.329Z,100498.31
2023-08-07T19:36:30.649Z,100476.03
2023-08-07T19:38:57.332Z,100462.09
2023-08-07T19:41:23.874Z,100474.66
2023-08-07T19:43:50.429Z,100443.03
2023-08-07T19:46:17.004Z,100463.78
2023-08-07T19:48:43.565Z,100466.56
2023-08-07T19:51:10.326Z,100437.00
2023-08-07T19:53:38.605Z,100414.88
2023-08-07T19:56:07.174Z,100408.88
2023-08-07T19:58:34.100Z,100370.00
2023-08-07T20:01:00.677Z,100373.47
2023-08-07T20:03:27.352Z,100369.25
2023-08-07T20:05:54.159Z,100386.69
2023-08-07T20:08:20.776Z,100349.31
2023-08-07T20:10:47.387Z,100360.88
2023-08-07T20:13:16.285Z,100372.78
2023-08-07T20:15:45.870Z,100400.09
2023-08-07T20:18:12.451Z,100373.06
2023-08-07T20:20:38.930Z,100385.00
2023-08-07T20:23:08.420Z,100378.06
2023-08-07T20:25:34.883Z,100396.41
2023-08-07T20:28:01.477Z,100383.13
2023-08-07T20:30:31.298Z,100372.03
2023-08-07T20:32:59.198Z,100378.47
2023-08-07T20:35:27.060Z,100382.22
2023-08-07T20:37:53.787Z,100359.25
2023-08-07T20:40:20.301Z,100365.22
2023-08-07T20:42:46.901Z,100391.66
2023-08-07T20:45:13.859Z,100372.28
2023-08-07T20:47:41.778Z,100363.47
2023-08-07T20:50:08.809Z,100372.97
2023-08-07T20:52:36.588Z,100344.56
2023-08-07T20:55:03.215Z,100339.88
2023-08-07T20:57:32.868Z,100385.47
2023-08-07T20:59:59.454Z,100391.34
2023-08-07T21:02:26.133Z,100417.69
2023-08-07T21:04:52.786Z,100402.53
2023-08-07T21:07:19.443Z,100400.69
2023-08-07T21:09:46.028Z,100368.81
2023-08-07T21:12:12.555Z,100374.69
2023-08-07T21:14:39.289Z,100402.44
2023-08-07T21:17:06.160Z,100363.34
2023-08-07T21:19:32.700Z,100356.69
2023-08-07T21:21:59.949Z,100372.31
2023-08-07T21:24:26.546Z,100346.97
2023-08-07T21:26:53.229Z,100352.09
2023-08-07T21:29:19.829Z,100323.09
2023-08-07T21:31:46.580Z,100348.78
2023-08-07T21:34:13.153Z,100351.03
2023-08-07T21:36:39.680Z,100318.47
2023-08-07T21:39:09.120Z,100351.81
2023-08-07T21:41:36.717Z,100385.81
2023-08-07T21:44:03.284Z,100384.75
2023-08-07T21:46:29.690Z,100383.88
2023-08-07T21:48:56.376Z,100363.00
2023-08-07T21:51:23.021Z,100369.03
2023-08-07T21:53:49.511Z,100362.94
2023-08-07T21:56:16.150Z,100346.00
2023-08-07T21:58:42.703Z,100371.00
2023-08-07T22:01:11.845Z,100351.91
2023-08-07T22:03:47.418Z,100339.72
2023-08-07T22:06:14.560Z,100364.56
2023-08-07T22:08:41.104Z,100328.75
2023-08-07T22:11:07.656Z,100346.63
2023-08-07T22:13:34.205Z,100342.03
2023-08-07T22:16:00.982Z,100345.63
2023-08-07T22:18:27.561Z,100323.81
2023-08-07T22:20:54.283Z,100339.75
2023-08-07T22:23:20.852Z,100316.84
2023-08-07T22:25:48.292Z,100308.03
2023-08-07T22:28:14.883Z,100334.25
2023-08-07T22:30:43.975Z,100316.41
2023-08-07T22:33:10.617Z,100310.88
2023-08-07T22:35:37.216Z,100323.28
2023-08-07T22:38:03.806Z,100312.22
2023-08-07T22:40:30.464Z,100313.88
2023-08-07T22:42:57.093Z,100309.50
2023-08-07T22:45:23.595Z,100322.31
2023-08-07T22:47:50.314Z,100334.16
2023-08-07T22:50:19.086Z,100299.38
2023-08-07T22:52:45.911Z,100316.44
2023-08-07T22:55:14.192Z,100301.56
2023-08-07T22:57:40.828Z,100287.88
2023-08-07T23:00:08.103Z,100314.09
2023-08-07T23:02:34.677Z,100283.53
2023-08-07T23:05:01.632Z,100281.47
2023-08-07T23:07:28.164Z,100276.94
2023-08-07T23:09:54.990Z,100294.97
2023-08-07T23:12:21.507Z,100301.81
2023-08-07T23:14:48.055Z,100300.22
2023-08-07T23:17:14.470Z,100300.13
2023-08-07T23:19:41.016Z,100299.44
2023-08-07T23:22:07.514Z,100292.84
2023-08-07T23:24:33.959Z,100279.50
2023-08-07T23:27:00.769Z,100276.34
2023-08-07T23:29:27.415Z,100266.22
2023-08-07T23:31:54.113Z,100276.06
2023-08-07T23:34:20.862Z,100270.94
2023-08-07T23:36:47.599Z,100259.75
2023-08-07T23:39:14.170Z,100264.28
2023-08-07T23:41:41.996Z,100262.41
2023-08-07T23:44:08.570Z,100259.38
2023-08-07T23:46:35.477Z,100261.72
2023-08-07T23:49:07.142Z,100289.94
2023-08-07T23:51:39.213Z,100257.09
2023-08-07T23:54:05.836Z,100267.47
2023-08-07T23:56:32.560Z,100257.50
2023-08-07T23:58:59.254Z,100246.09
